createdAt,value
2018-07-19T00:01:49.801Z,48.66
2018-07-19T00:04:18.863Z,48.63
2018-07-19T00:06:47.814Z,48.31
2018-07-19T00:09:16.817Z,47.88
2018-07-19T00:11:45.769Z,48.98
2018-07-19T00:14:14.732Z,47.72
2018-07-19T00:16:43.757Z,48.37
2018-07-19T00:19:12.730Z,48.43
2018-07-19T00:21:41.837Z,47.21
2018-07-19T00:24:11.169Z,47.75
2018-07-19T00:26:40.194Z,47.30
2018-07-19T00:29:09.108Z,47.75
2018-07-19T00:31:38.182Z,47.68
2018-07-19T00:34:07.202Z,47.69
2018-07-19T00:36:36.202Z,47.59
2018-07-19T00:39:06.511Z,48.09
2018-07-19T00:41:35.542Z,46.64
2018-07-19T00:44:04.759Z,46.25
2018-07-19T00:46:33.912Z,46.24
2018-07-19T00:49:02.855Z,45.99
2018-07-19T00:51:31.820Z,45.99
2018-07-19T00:54:00.818Z,46.63
2018-07-19T00:56:29.772Z,47.00
2018-07-19T00:58:58.723Z,46.18
2018-07-19T01:01:27.776Z,46.07
2018-07-19T01:03:56.801Z,45.96
2018-07-19T01:06:25.783Z,45.59
2018-07-19T01:08:54.782Z,46.36
2018-07-19T01:11:23.834Z,45.53
2018-07-19T01:13:52.819Z,45.87
2018-07-19T01:16:21.842Z,45.10
2018-07-19T01:18:50.993Z,45.44
2018-07-19T01:21:20.021Z,44.12
2018-07-19T01:23:49.000Z,44.38
2018-07-19T01:26:17.909Z,44.34
2018-07-19T01:28:46.837Z,44.07
2018-07-19T01:31:16.177Z,44.00
2018-07-19T01:33:45.273Z,43.14
2018-07-19T01:36:14.314Z,43.68
2018-07-19T01:38:43.338Z,43.36
2018-07-19T01:41:23.345Z,43.42
2018-07-19T01:43:52.316Z,43.00
2018-07-19T01:46:21.267Z,43.30
2018-07-19T01:48:50.252Z,42.74
2018-07-19T01:51:19.296Z,42.99
2018-07-19T01:53:48.293Z,42.78
2018-07-19T01:56:17.255Z,42.74
2018-07-19T01:58:46.227Z,42.51
2018-07-19T02:01:15.151Z,42.91
2018-07-19T02:03:44.113Z,42.11
2018-07-19T02:06:13.100Z,41.98
2018-07-19T02:08:42.194Z,41.40
2018-07-19T02:11:11.184Z,41.46
2018-07-19T02:13:40.176Z,41.86
2018-07-19T02:16:09.152Z,41.50
2018-07-19T02:18:38.042Z,42.48
2018-07-19T02:21:07.090Z,42.55
2018-07-19T02:23:36.152Z,42.44
2018-07-19T02:26:05.282Z,42.86
2018-07-19T02:28:34.290Z,42.28
2018-07-19T02:31:03.346Z,42.54
2018-07-19T02:33:32.422Z,42.53
2018-07-19T02:36:01.473Z,42.57
2018-07-19T02:38:30.497Z,43.22
2018-07-19T02:40:59.549Z,43.32
2018-07-19T02:43:28.583Z,43.46
2018-07-19T02:45:57.547Z,42.68
2018-07-19T02:48:26.513Z,43.64
2018-07-19T02:50:55.427Z,43.53
2018-07-19T02:53:24.439Z,43.82
2018-07-19T02:55:53.417Z,43.72
2018-07-19T02:58:22.409Z,43.56
2018-07-19T03:00:51.360Z,44.34
2018-07-19T03:03:20.356Z,44.54
2018-07-19T03:05:49.376Z,44.22
2018-07-19T03:08:18.535Z,44.42
2018-07-19T03:10:47.555Z,45.41
2018-07-19T03:13:16.529Z,44.91
2018-07-19T03:15:45.560Z,45.40
2018-07-19T03:18:14.581Z,45.02
2018-07-19T03:20:43.629Z,45.37
2018-07-19T03:23:12.586Z,44.23
2018-07-19T03:25:41.503Z,45.57
2018-07-19T03:28:10.442Z,45.51
2018-07-19T03:30:39.437Z,46.10
2018-07-19T03:33:08.436Z,45.31
2018-07-19T03:35:37.433Z,46.29
2018-07-19T03:38:06.486Z,46.04
2018-07-19T03:40:35.472Z,46.01
2018-07-19T03:43:04.560Z,46.51
2018-07-19T03:45:33.544Z,46.42
2018-07-19T03:48:02.488Z,46.50
2018-07-19T03:50:31.751Z,45.98
2018-07-19T03:53:00.784Z,46.93
2018-07-19T03:55:29.733Z,46.55
2018-07-19T03:57:58.939Z,47.53
2018-07-19T04:00:27.933Z,47.04
2018-07-19T04:02:56.956Z,46.65
2018-07-19T04:05:26.026Z,47.69
2018-07-19T04:07:54.975Z,48.57
2018-07-19T04:10:23.950Z,48.72
2018-07-19T04:12:53.077Z,48.55
2018-07-19T04:15:22.095Z,49.06
2018-07-19T04:17:58.315Z,48.37
2018-07-19T04:20:30.312Z,48.07
2018-07-19T04:22:59.304Z,48.32
2018-07-19T04:25:28.450Z,48.68
2018-07-19T04:27:57.969Z,48.83
2018-07-19T04:30:27.075Z,47.92
2018-07-19T04:32:56.019Z,48.81
2018-07-19T04:35:25.010Z,47.65
2018-07-19T04:37:53.931Z,48.11
2018-07-19T04:40:22.980Z,47.83
2018-07-19T04:42:51.882Z,49.18
2018-07-19T04:45:21.000Z,48.59
2018-07-19T04:47:50.017Z,49.63
2018-07-19T04:50:19.021Z,49.28
2018-07-19T04:52:49.578Z,49.53
2018-07-19T04:55:18.612Z,49.71
2018-07-19T04:57:47.487Z,49.97
2018-07-19T05:00:16.685Z,49.51
2018-07-19T05:02:45.790Z,49.90
2018-07-19T05:05:14.752Z,49.58
2018-07-19T05:07:43.753Z,49.74
2018-07-19T05:10:12.667Z,50.18
2018-07-19T05:12:41.638Z,49.94
2018-07-19T05:15:10.590Z,50.57
2018-07-19T05:17:39.513Z,50.89
2018-07-19T05:20:08.608Z,51.42
2018-07-19T05:22:37.590Z,49.92
2018-07-19T05:25:06.481Z,51.48
2018-07-19T05:27:35.509Z,51.31
2018-07-19T05:30:05.202Z,50.38
2018-07-19T05:32:34.175Z,51.11
2018-07-19T05:35:03.261Z,51.56
2018-07-19T05:37:32.157Z,50.56
2018-07-19T05:40:01.103Z,52.25
2018-07-19T05:42:30.081Z,52.33
2018-07-19T05:44:59.056Z,52.06
2018-07-19T05:47:28.078Z,52.33
2018-07-19T05:49:56.994Z,52.40
2018-07-19T05:52:25.975Z,53.37
2018-07-19T05:54:54.889Z,52.26
2018-07-19T05:57:23.936Z,53.13
2018-07-19T05:59:52.988Z,52.58
2018-07-19T06:02:22.047Z,53.16
2018-07-19T06:04:51.029Z,53.63
2018-07-19T06:07:20.012Z,53.00
2018-07-19T06:09:49.003Z,53.80
2018-07-19T06:12:17.918Z,53.51
2018-07-19T06:14:46.940Z,53.09
2018-07-19T06:17:15.901Z,52.95
2018-07-19T06:19:44.935Z,53.06
2018-07-19T06:22:13.963Z,53.65
2018-07-19T06:24:42.876Z,53.75
2018-07-19T06:27:11.826Z,53.36
2018-07-19T06:29:40.838Z,53.53
2018-07-19T06:32:10.026Z,52.73
2018-07-19T06:34:39.031Z,52.61
2018-07-19T06:37:08.436Z,53.41
2018-07-19T06:39:37.453Z,51.99
2018-07-19T06:42:06.538Z,53.63
2018-07-19T06:44:35.718Z,52.58
2018-07-19T06:47:04.884Z,53.09
2018-07-19T06:49:33.857Z,52.24
2018-07-19T06:52:02.871Z,52.28
2018-07-19T06:54:31.747Z,51.96
2018-07-19T06:57:00.677Z,51.14
2018-07-19T06:59:29.630Z,52.52
2018-07-19T07:01:58.675Z,51.52
2018-07-19T07:04:27.652Z,51.09
2018-07-19T07:06:56.680Z,51.96
2018-07-19T07:09:25.742Z,51.79
2018-07-19T07:11:54.847Z,52.46
2018-07-19T07:14:23.887Z,51.71
2018-07-19T07:16:52.778Z,51.91
2018-07-19T07:19:21.677Z,51.46
2018-07-19T07:21:50.687Z,52.25
2018-07-19T07:24:19.841Z,51.78
2018-07-19T07:26:49.077Z,51.22
2018-07-19T07:29:18.174Z,50.57
2018-07-19T07:31:47.168Z,50.19
2018-07-19T07:34:16.197Z,50.03
2018-07-19T07:36:45.201Z,50.57
2018-07-19T07:39:14.209Z,50.80
2018-07-19T07:41:43.187Z,50.83
2018-07-19T07:44:12.261Z,50.74
2018-07-19T07:46:41.310Z,50.48
2018-07-19T07:49:10.388Z,51.17
2018-07-19T07:51:39.479Z,50.84
2018-07-19T07:54:08.523Z,50.53
2018-07-19T07:56:37.618Z,51.40
2018-07-19T07:59:06.648Z,49.86
2018-07-19T08:01:35.661Z,49.91
2018-07-19T08:04:04.719Z,50.22
2018-07-19T08:06:34.041Z,49.92
2018-07-19T08:09:03.140Z,50.32
2018-07-19T08:11:32.114Z,50.15
2018-07-19T08:14:01.189Z,50.08
2018-07-19T08:16:30.180Z,50.13
2018-07-19T08:18:59.214Z,50.46
2018-07-19T08:21:28.296Z,51.02
2018-07-19T08:23:57.208Z,49.64
2018-07-19T08:26:26.092Z,49.64
2018-07-19T08:28:55.131Z,50.85
2018-07-19T08:31:24.232Z,47.62
2018-07-19T08:33:53.494Z,48.94
2018-07-19T08:36:22.530Z,48.71
2018-07-19T08:38:51.713Z,47.68
2018-07-19T08:41:20.754Z,48.28
2018-07-19T08:43:49.819Z,48.02
2018-07-19T08:46:18.826Z,49.62
2018-07-19T08:48:48.041Z,48.94
2018-07-19T08:51:18.449Z,48.96
2018-07-19T08:53:47.572Z,49.50
2018-07-19T08:58:45.511Z,47.91
2018-07-19T09:01:14.675Z,47.17
2018-07-19T09:03:43.727Z,48.41
2018-07-19T09:06:12.973Z,48.64
2018-07-19T09:08:42.116Z,48.19
2018-07-19T09:11:11.213Z,48.39
2018-07-19T09:13:40.279Z,49.00
2018-07-19T09:16:09.271Z,48.21
2018-07-19T09:18:38.356Z,49.39
2018-07-19T09:21:07.566Z,48.12
2018-07-19T09:23:36.703Z,47.98
2018-07-19T09:26:05.672Z,48.04
2018-07-19T09:28:34.658Z,47.88
2018-07-19T09:31:03.653Z,47.67
2018-07-19T09:33:33.140Z,48.74
2018-07-19T09:36:02.282Z,47.95
2018-07-19T09:38:31.420Z,48.73
2018-07-19T09:41:00.406Z,48.70
2018-07-19T09:43:29.606Z,48.99
2018-07-19T09:45:58.608Z,49.46
2018-07-19T09:48:28.468Z,47.41
2018-07-19T09:50:57.498Z,48.85
2018-07-19T09:53:26.526Z,47.81
2018-07-19T09:55:55.490Z,48.18
2018-07-19T09:58:24.458Z,48.49
2018-07-19T10:00:58.603Z,48.00
2018-07-19T10:03:27.792Z,47.49
2018-07-19T10:05:56.821Z,47.76
2018-07-19T10:08:25.879Z,48.25
2018-07-19T10:10:55.085Z,48.23
2018-07-19T10:13:24.311Z,48.02
2018-07-19T10:15:53.426Z,48.42
2018-07-19T10:18:22.574Z,47.25
2018-07-19T10:20:51.573Z,48.25
2018-07-19T10:23:20.557Z,47.98
2018-07-19T10:25:49.696Z,48.13
2018-07-19T10:28:18.834Z,46.74
2018-07-19T10:30:48.402Z,46.90
2018-07-19T10:33:17.397Z,48.03
2018-07-19T10:35:46.886Z,47.62
2018-07-19T10:38:15.905Z,46.80
2018-07-19T10:40:45.036Z,46.57
2018-07-19T10:43:14.027Z,46.15
2018-07-19T10:45:43.072Z,46.78
2018-07-19T10:48:12.098Z,45.87
2018-07-19T10:50:41.071Z,46.10
2018-07-19T10:53:10.204Z,46.07
2018-07-19T10:55:39.232Z,47.58
2018-07-19T10:58:08.202Z,48.00
2018-07-19T11:00:37.201Z,47.83
2018-07-19T11:03:06.289Z,48.84
2018-07-19T11:05:35.357Z,47.81
2018-07-19T11:08:04.946Z,47.67
2018-07-19T11:10:34.252Z,46.80
2018-07-19T11:13:03.278Z,48.79
2018-07-19T11:15:32.309Z,46.61
2018-07-19T11:18:01.365Z,48.08
2018-07-19T11:20:30.337Z,45.05
2018-07-19T11:22:59.320Z,45.69
2018-07-19T11:25:28.289Z,45.70
2018-07-19T11:27:57.288Z,45.22
2018-07-19T11:30:26.364Z,47.81
2018-07-19T11:32:55.422Z,46.48
2018-07-19T11:35:24.501Z,47.06
2018-07-19T11:37:54.555Z,47.64
2018-07-19T11:40:24.100Z,46.06
2018-07-19T11:42:53.102Z,46.82
2018-07-19T11:45:22.286Z,46.29
2018-07-19T11:47:51.389Z,46.40
2018-07-19T11:50:20.651Z,47.17
2018-07-19T11:52:49.705Z,48.52
2018-07-19T11:55:18.814Z,46.77
2018-07-19T11:57:47.837Z,47.68
2018-07-19T12:00:16.910Z,45.62
2018-07-19T12:02:45.898Z,45.98
2018-07-19T12:05:14.896Z,44.54
2018-07-19T12:07:43.864Z,45.21
2018-07-19T12:10:12.953Z,44.70
2018-07-19T12:12:42.003Z,45.28
2018-07-19T12:15:11.051Z,46.93
2018-07-19T12:17:40.170Z,46.23
2018-07-19T12:20:09.541Z,46.70
2018-07-19T12:22:38.594Z,46.61
2018-07-19T12:25:08.165Z,45.11
2018-07-19T12:27:37.100Z,44.09
2018-07-19T12:30:06.363Z,43.80
2018-07-19T12:32:35.716Z,45.70
2018-07-19T12:35:04.817Z,44.80
2018-07-19T12:37:33.812Z,46.64
2018-07-19T12:40:02.928Z,45.61
2018-07-19T12:42:32.393Z,46.44
2018-07-19T12:45:02.013Z,46.85
2018-07-19T12:47:31.302Z,46.41
2018-07-19T12:50:00.294Z,46.13
2018-07-19T12:52:30.445Z,45.99
2018-07-19T12:54:59.461Z,46.12
2018-07-19T12:57:28.731Z,46.71
2018-07-19T12:59:57.707Z,45.19
2018-07-19T13:02:26.850Z,46.57
2018-07-19T13:04:55.978Z,46.33
2018-07-19T13:07:25.916Z,46.45
2018-07-19T13:09:55.218Z,46.17
2018-07-19T13:12:24.949Z,46.38
2018-07-19T13:14:53.916Z,45.05
2018-07-19T13:17:23.260Z,44.90
2018-07-19T13:19:52.319Z,46.40
2018-07-19T13:22:21.459Z,46.58
2018-07-19T13:24:50.833Z,46.20
2018-07-19T13:27:20.023Z,46.95
2018-07-19T13:29:49.188Z,46.31
2018-07-19T13:32:18.278Z,46.80
2018-07-19T13:34:48.114Z,45.38
2018-07-19T13:37:17.212Z,46.33
2018-07-19T13:39:46.234Z,46.14
2018-07-19T13:42:15.185Z,46.05
2018-07-19T13:44:44.133Z,46.06
2018-07-19T13:47:13.218Z,45.98
2018-07-19T13:49:42.130Z,45.28
2018-07-19T13:52:11.179Z,44.96
2018-07-19T13:54:45.487Z,45.44
2018-07-19T13:57:14.491Z,46.09
2018-07-19T13:59:43.633Z,46.47
2018-07-19T14:02:12.845Z,47.24
2018-07-19T14:04:41.925Z,46.56
2018-07-19T14:07:10.928Z,45.81
2018-07-19T14:09:39.918Z,46.39
2018-07-19T14:12:08.852Z,45.50
2018-07-19T14:14:37.748Z,45.42
2018-07-19T14:17:06.790Z,46.29
2018-07-19T14:19:35.694Z,45.06
2018-07-19T14:22:04.603Z,45.23
2018-07-19T14:24:33.636Z,44.81
2018-07-19T14:27:02.616Z,46.22
2018-07-19T14:29:31.564Z,45.81
2018-07-19T14:32:00.575Z,47.16
2018-07-19T14:34:29.588Z,46.53
2018-07-19T14:36:58.525Z,46.18
2018-07-19T14:39:27.448Z,46.15
2018-07-19T14:41:56.336Z,46.09
2018-07-19T14:44:25.247Z,47.07
2018-07-19T14:46:54.285Z,46.91
2018-07-19T14:49:23.262Z,48.04
2018-07-19T14:51:53.054Z,46.65
2018-07-19T14:54:22.008Z,47.10
2018-07-19T14:56:51.036Z,47.48
2018-07-19T14:59:19.953Z,46.80
2018-07-19T15:01:48.990Z,47.23
2018-07-19T15:04:18.134Z,47.48
2018-07-19T15:06:47.171Z,46.78
2018-07-19T15:09:16.246Z,46.18
2018-07-19T15:11:45.465Z,45.98
2018-07-19T15:14:14.476Z,47.26
2018-07-19T15:16:43.473Z,47.24
2018-07-19T15:19:12.576Z,47.44
2018-07-19T15:21:41.630Z,46.64
2018-07-19T15:24:10.616Z,47.73
2018-07-19T15:26:39.908Z,47.22
2018-07-19T15:29:08.898Z,48.11
2018-07-19T15:31:37.955Z,47.83
2018-07-19T15:34:07.157Z,47.11
2018-07-19T15:36:36.232Z,46.95
2018-07-19T15:39:07.047Z,48.22
2018-07-19T15:41:36.128Z,48.73
2018-07-19T15:44:05.161Z,49.95
2018-07-19T15:46:34.149Z,49.01
2018-07-19T15:49:03.023Z,49.19
2018-07-19T15:51:31.946Z,49.44
2018-07-19T15:54:00.880Z,50.87
2018-07-19T15:56:29.822Z,49.95
2018-07-19T15:58:58.759Z,51.44
2018-07-19T16:01:27.803Z,51.55
2018-07-19T16:03:56.772Z,50.75
2018-07-19T16:06:25.892Z,51.75
2018-07-19T16:08:55.134Z,51.03
2018-07-19T16:11:24.045Z,51.16
2018-07-19T16:13:53.164Z,51.20
2018-07-19T16:16:22.098Z,50.96
2018-07-19T16:18:51.013Z,50.61
2018-07-19T16:21:19.977Z,51.05
2018-07-19T16:23:49.705Z,50.32
2018-07-19T16:26:18.801Z,50.91
2018-07-19T16:28:47.738Z,51.29
2018-07-19T16:31:16.814Z,51.06
2018-07-19T16:33:45.955Z,51.74
2018-07-19T16:36:14.963Z,51.73
2018-07-19T16:38:43.921Z,51.97
2018-07-19T16:41:12.811Z,52.45
2018-07-19T16:43:41.766Z,52.70
2018-07-19T16:46:11.141Z,52.20
2018-07-19T16:48:40.109Z,52.75
2018-07-19T16:51:09.057Z,52.84
2018-07-19T16:53:38.047Z,52.95
2018-07-19T16:56:07.200Z,52.81
2018-07-19T16:58:36.092Z,52.78
2018-07-19T17:01:05.043Z,53.51
2018-07-19T17:03:33.940Z,53.97
2018-07-19T17:06:02.854Z,53.57
2018-07-19T17:08:31.818Z,53.47
2018-07-19T17:11:00.713Z,53.86
2018-07-19T17:13:29.569Z,53.93
2018-07-19T17:15:58.541Z,54.75
2018-07-19T17:18:27.405Z,54.04
2018-07-19T17:20:56.220Z,54.56
2018-07-19T17:23:25.089Z,54.42
2018-07-19T17:25:54.000Z,54.05
2018-07-19T17:28:22.804Z,55.04
2018-07-19T17:30:51.749Z,55.29
2018-07-19T17:33:20.693Z,55.36
2018-07-19T17:35:49.721Z,55.49
2018-07-19T17:38:18.722Z,54.67
2018-07-19T17:40:47.640Z,54.86
2018-07-19T17:43:16.490Z,55.13
2018-07-19T17:45:45.421Z,55.64
2018-07-19T17:48:14.312Z,56.83
2018-07-19T17:50:43.184Z,57.26
2018-07-19T17:53:12.083Z,55.63
2018-07-19T17:55:41.793Z,56.01
2018-07-19T17:58:10.691Z,55.34
2018-07-19T18:00:39.628Z,55.56
2018-07-19T18:03:08.466Z,56.76
2018-07-19T18:05:37.374Z,56.07
2018-07-19T18:08:06.366Z,56.68
2018-07-19T18:10:35.205Z,55.65
2018-07-19T18:13:04.103Z,56.49
2018-07-19T18:15:32.953Z,56.24
2018-07-19T18:18:02.827Z,56.01
2018-07-19T18:20:31.728Z,55.67
2018-07-19T18:23:00.722Z,55.18
2018-07-19T18:25:29.635Z,56.12
2018-07-19T18:27:58.538Z,54.88
2018-07-19T18:30:27.456Z,55.54
2018-07-19T18:32:56.367Z,55.51
2018-07-19T18:35:25.276Z,54.71
2018-07-19T18:37:54.203Z,54.83
2018-07-19T18:40:23.080Z,54.46
2018-07-19T18:42:52.481Z,55.69
2018-07-19T18:45:21.616Z,55.12
2018-07-19T18:47:50.630Z,56.50
2018-07-19T18:50:19.685Z,55.94
2018-07-19T18:52:48.732Z,63.42
2018-07-19T18:55:18.504Z,61.99
2018-07-19T18:57:47.437Z,59.86
2018-07-19T19:00:16.407Z,59.78
2018-07-19T19:02:45.400Z,61.73
2018-07-19T19:05:14.334Z,62.46
2018-07-19T19:07:43.297Z,61.99
2018-07-19T19:10:12.286Z,61.02
2018-07-19T19:12:41.388Z,62.26
2018-07-19T19:15:10.432Z,60.52
2018-07-19T19:17:39.620Z,61.27
2018-07-19T19:20:08.557Z,60.57
2018-07-19T19:22:37.569Z,59.37
2018-07-19T19:25:23.747Z,58.81
2018-07-19T19:27:53.065Z,59.42
2018-07-19T19:30:22.010Z,58.68
2018-07-19T19:32:50.883Z,59.18
2018-07-19T19:35:19.823Z,58.38
2018-07-19T19:37:48.688Z,57.68
2018-07-19T19:40:17.850Z,57.78
2018-07-19T19:42:46.812Z,58.82
2018-07-19T19:45:15.661Z,58.90
2018-07-19T19:47:44.464Z,58.77
2018-07-19T19:50:13.947Z,58.01
2018-07-19T19:52:42.799Z,57.88
2018-07-19T19:55:13.643Z,58.03
2018-07-19T19:57:42.461Z,58.73
2018-07-19T20:00:11.308Z,58.51
2018-07-19T20:02:40.183Z,58.24
2018-07-19T20:05:09.040Z,58.44
2018-07-19T20:07:37.961Z,58.32
2018-07-19T20:10:07.336Z,58.79
2018-07-19T20:12:36.921Z,58.57
2018-07-19T20:15:06.006Z,58.98
2018-07-19T20:17:34.868Z,58.79
2018-07-19T20:20:03.854Z,57.59
2018-07-19T20:22:32.757Z,57.18
2018-07-19T20:25:01.623Z,57.31
2018-07-19T20:27:30.465Z,56.20
2018-07-19T20:29:59.276Z,56.64
2018-07-19T20:32:28.241Z,56.08
2018-07-19T20:34:57.108Z,56.32
2018-07-19T20:37:25.928Z,56.28
2018-07-19T20:39:54.860Z,55.93
2018-07-19T20:42:24.577Z,56.62
2018-07-19T20:44:53.478Z,56.10
2018-07-19T20:47:22.327Z,56.29
2018-07-19T20:49:51.267Z,56.67
2018-07-19T20:52:20.106Z,56.75
2018-07-19T20:54:48.916Z,55.69
2018-07-19T20:57:18.432Z,56.34
2018-07-19T20:59:47.269Z,55.78
2018-07-19T21:02:16.167Z,56.30
2018-07-19T21:04:45.247Z,56.38
2018-07-19T21:07:14.057Z,56.26
2018-07-19T21:09:43.014Z,56.02
2018-07-19T21:12:12.086Z,56.54
2018-07-19T21:14:41.146Z,56.28
2018-07-19T21:17:10.049Z,55.95
2018-07-19T21:19:38.893Z,57.28
2018-07-19T21:22:07.776Z,57.18
2018-07-19T21:24:36.646Z,57.44
2018-07-19T21:27:05.717Z,57.28
2018-07-19T21:29:34.531Z,57.64
2018-07-19T21:32:03.380Z,58.73
2018-07-19T21:34:32.224Z,59.24
2018-07-19T21:37:01.095Z,58.74
2018-07-19T21:39:29.982Z,59.21
2018-07-19T21:41:58.836Z,58.83
2018-07-19T21:44:27.682Z,58.59
2018-07-19T21:46:56.532Z,59.67
2018-07-19T21:49:25.428Z,59.15
2018-07-19T21:51:54.312Z,59.28
2018-07-19T21:54:23.217Z,59.64
2018-07-19T21:56:52.088Z,58.99
2018-07-19T21:59:20.906Z,59.65
2018-07-19T22:01:49.738Z,58.77
2018-07-19T22:04:18.629Z,59.22
2018-07-19T22:06:47.481Z,60.16
2018-07-19T22:09:16.344Z,59.80
2018-07-19T22:11:45.267Z,59.49
2018-07-19T22:14:14.067Z,59.41
2018-07-19T22:16:42.913Z,60.01
2018-07-19T22:19:11.750Z,59.70
2018-07-19T22:21:40.526Z,59.42
2018-07-19T22:24:09.345Z,59.44
2018-07-19T22:26:38.437Z,59.24
2018-07-19T22:29:07.243Z,60.20
2018-07-19T22:31:36.100Z,59.71
2018-07-19T22:34:05.051Z,59.04
2018-07-19T22:36:33.945Z,59.35
2018-07-19T22:39:02.851Z,59.83
2018-07-19T22:41:31.745Z,59.44
2018-07-19T22:44:00.568Z,59.67
2018-07-19T22:46:29.422Z,59.96
2018-07-19T22:48:58.245Z,59.07
2018-07-19T22:51:27.127Z,58.67
2018-07-19T22:53:55.967Z,59.17
2018-07-19T22:56:25.396Z,58.35
2018-07-19T22:58:54.203Z,58.42
2018-07-19T23:01:23.006Z,58.64
2018-07-19T23:03:51.855Z,59.11
2018-07-19T23:06:20.648Z,58.68
2018-07-19T23:08:49.440Z,59.08
2018-07-19T23:11:18.336Z,58.38
2018-07-19T23:13:47.265Z,58.08
2018-07-19T23:16:16.511Z,58.04
2018-07-19T23:18:45.425Z,57.61
2018-07-19T23:21:14.317Z,57.74
2018-07-19T23:23:43.278Z,56.42
2018-07-19T23:26:12.177Z,56.38
2018-07-19T23:28:41.162Z,56.34
2018-07-19T23:31:10.053Z,55.99
2018-07-19T23:33:39.006Z,56.03
2018-07-19T23:36:31.642Z,56.24
2018-07-19T23:39:18.718Z,55.12
2018-07-19T23:41:52.429Z,55.87
2018-07-19T23:44:25.578Z,55.50
2018-07-19T23:46:58.089Z,55.78
2018-07-19T23:49:26.956Z,55.55
2018-07-19T23:51:55.781Z,54.92
2018-07-19T23:54:24.585Z,55.71
2018-07-19T23:56:53.510Z,55.67
2018-07-19T23:59:22.338Z,55.85
